Terminal Aerodrome Forecast
Issued by NWS Sterling, VA

Current Version | Previous Version | Graphics & Text | Print | Product List | Glossary On
Versions: 1 2 3 4 5 6 7 8 9 10 11 12 13 14 15 16 17 18 19 20 21 22 23 24 25 26 27 28 29 30 31 32
058
FTUS41 KLWX 170859 AAA
TAFIAD
TAF AMD
KIAD 170859Z 1709/1812 00000KT 6SM BR SCT050 SCT080
      TEMPO 1709/1712 3SM BR
     FM171200 00000KT P6SM BKN050
     FM171800 19006KT P6SM VCSH BKN050=

USA.gov is the U.S. government's official web portal to all federal, state and local government web resources and services.